createdAt,value
2016-06-03T00:00:07.372Z,0
2016-06-03T00:01:07.421Z,0
2016-06-03T00:02:07.424Z,0
2016-06-03T00:03:07.459Z,0
2016-06-03T00:04:07.492Z,0
2016-06-03T00:05:07.509Z,0
2016-06-03T00:06:07.528Z,0
2016-06-03T00:07:07.562Z,0
2016-06-03T00:08:07.597Z,0
2016-06-03T00:09:07.645Z,0
2016-06-03T00:10:07.523Z,0
2016-06-03T00:11:07.666Z,0
2016-06-03T00:12:07.701Z,0
2016-06-03T00:13:07.735Z,0
2016-06-03T00:14:07.753Z,0
2016-06-03T00:15:07.787Z,0
2016-06-03T00:16:07.821Z,0
2016-06-03T00:17:07.855Z,0
2016-06-03T00:18:07.874Z,0
2016-06-03T00:19:07.908Z,0
2016-06-03T00:20:07.926Z,0
2016-06-03T00:21:07.959Z,0
2016-06-03T00:22:07.994Z,0
2016-06-03T00:23:08.012Z,0
2016-06-03T00:24:08.030Z,0
2016-06-03T00:25:08.282Z,0
2016-06-03T00:26:08.082Z,0
2016-06-03T00:27:08.116Z,0
2016-06-03T00:28:08.150Z,0
2016-06-03T00:29:08.169Z,0
2016-06-03T00:30:08.202Z,0
2016-06-03T00:31:09.689Z,0
2016-06-03T00:32:08.255Z,0
2016-06-03T00:33:08.273Z,0
2016-06-03T00:34:08.307Z,0
2016-06-03T00:35:08.184Z,0
2016-06-03T00:36:08.359Z,0
2016-06-03T00:37:08.393Z,0
2016-06-03T00:38:08.427Z,0
2016-06-03T00:39:08.445Z,0
2016-06-03T00:40:09.339Z,0
2016-06-03T00:41:08.498Z,0
2016-06-03T00:42:08.735Z,0
2016-06-03T00:43:08.550Z,0
2016-06-03T00:44:08.583Z,0
2016-06-03T00:45:08.617Z,0
2016-06-03T00:46:08.636Z,0
2016-06-03T00:47:08.685Z,0
2016-06-03T00:48:08.705Z,0
2016-06-03T00:49:08.722Z,0
2016-06-03T00:50:08.756Z,0
2016-06-03T00:51:08.790Z,0
2016-06-03T00:52:08.808Z,0
2016-06-03T00:53:08.827Z,0
2016-06-03T00:54:08.860Z,0
2016-06-03T00:55:08.941Z,0
2016-06-03T00:56:08.913Z,0
2016-06-03T00:57:08.791Z,0
2016-06-03T00:58:08.966Z,0
2016-06-03T00:59:08.843Z,0
2016-06-03T01:00:09.017Z,0
2016-06-03T01:01:08.895Z,0
2016-06-03T01:02:09.085Z,0
2016-06-03T01:03:09.104Z,0
2016-06-03T01:04:09.137Z,0
2016-06-03T01:05:09.171Z,0
2016-06-03T01:06:09.190Z,0
2016-06-03T01:07:09.224Z,0
2016-06-03T01:08:09.243Z,0
2016-06-03T01:09:09.276Z,0
2016-06-03T01:10:09.310Z,0
2016-06-03T01:11:09.328Z,0
2016-06-03T01:12:09.347Z,0
2016-06-03T01:13:09.380Z,0
2016-06-03T01:14:09.399Z,0
2016-06-03T01:15:09.448Z,0
2016-06-03T01:16:09.483Z,0
2016-06-03T01:17:09.485Z,0
2016-06-03T01:18:09.519Z,0
2016-06-03T01:19:09.538Z,0
2016-06-03T01:20:09.571Z,0
2016-06-03T01:21:09.605Z,0
2016-06-03T01:22:09.624Z,0
2016-06-03T01:23:09.642Z,0
2016-06-03T01:24:09.691Z,0
2016-06-03T01:25:09.569Z,0
2016-06-03T01:26:09.744Z,0
2016-06-03T01:27:09.762Z,0
2016-06-03T01:28:09.796Z,0
2016-06-03T01:29:09.829Z,0
2016-06-03T01:30:09.863Z,0
2016-06-03T01:31:09.882Z,0
2016-06-03T01:32:09.901Z,0
2016-06-03T01:33:09.934Z,0
2016-06-03T01:34:09.968Z,0
2016-06-03T01:35:09.987Z,0
2016-06-03T01:36:10.020Z,0
2016-06-03T01:37:10.039Z,0
2016-06-03T01:38:10.089Z,0
2016-06-03T01:39:10.091Z,0
2016-06-03T01:40:10.188Z,0
2016-06-03T01:41:10.143Z,0
2016-06-03T01:42:10.177Z,0
2016-06-03T01:43:10.211Z,0
2016-06-03T01:44:10.230Z,0
2016-06-03T01:45:10.248Z,0
2016-06-03T01:46:10.281Z,0
2016-06-03T01:47:10.316Z,0
2016-06-03T01:48:10.334Z,0
2016-06-03T01:49:10.368Z,0
2016-06-03T01:50:10.386Z,0
2016-06-03T01:51:10.420Z,0
2016-06-03T01:52:10.455Z,0
2016-06-03T01:53:10.333Z,0
2016-06-03T01:54:10.506Z,0
2016-06-03T01:55:10.884Z,0
2016-06-03T01:56:10.574Z,0
2016-06-03T01:57:10.593Z,0
2016-06-03T01:58:10.610Z,0
2016-06-03T01:59:10.629Z,0
2016-06-03T02:00:10.663Z,0
2016-06-03T02:01:10.713Z,0
2016-06-03T02:02:10.715Z,0
2016-06-03T02:03:10.766Z,0
2016-06-03T02:04:10.784Z,0
2016-06-03T02:05:10.801Z,0
2016-06-03T02:06:10.820Z,0
2016-06-03T02:07:10.854Z,0
2016-06-03T02:08:10.872Z,0
2016-06-03T02:09:10.923Z,0
2016-06-03T02:10:11.550Z,0
2016-06-03T02:11:10.959Z,0
2016-06-03T02:12:10.836Z,0
2016-06-03T02:13:11.026Z,0
2016-06-03T02:14:11.029Z,0
2016-06-03T02:15:11.064Z,0
2016-06-03T02:16:11.097Z,0
2016-06-03T02:17:11.147Z,0
2016-06-03T02:18:11.149Z,0
2016-06-03T02:19:11.183Z,0
2016-06-03T02:20:11.202Z,0
2016-06-03T02:21:11.235Z,0
2016-06-03T02:22:11.285Z,0
2016-06-03T02:23:11.288Z,0
2016-06-03T02:24:11.321Z,0
2016-06-03T02:25:12.652Z,0
2016-06-03T02:26:11.358Z,0
2016-06-03T02:27:11.407Z,0
2016-06-03T02:28:11.426Z,0
2016-06-03T02:29:11.444Z,0
2016-06-03T02:30:11.479Z,0
2016-06-03T02:31:11.497Z,0
2016-06-03T02:32:11.530Z,0
2016-06-03T02:33:11.549Z,0
2016-06-03T02:34:11.568Z,0
2016-06-03T02:35:11.633Z,0
2016-06-03T02:36:11.635Z,0
2016-06-03T02:37:11.669Z,0
2016-06-03T02:38:11.687Z,4
2016-06-03T02:39:11.706Z,0
2016-06-03T02:40:12.365Z,0
2016-06-03T02:41:11.773Z,4
2016-06-03T02:42:11.807Z,0
2016-06-03T02:43:11.826Z,0
2016-06-03T02:44:11.859Z,4
2016-06-03T02:45:11.894Z,0
2016-06-03T02:46:11.897Z,4
2016-06-03T02:47:11.931Z,4
2016-06-03T02:48:11.964Z,4
2016-06-03T02:49:11.997Z,4
2016-06-03T02:50:12.016Z,4
2016-06-03T02:51:12.050Z,8
2016-06-03T02:52:12.069Z,8
2016-06-03T02:53:12.102Z,4
2016-06-03T02:54:12.121Z,8
2016-06-03T02:55:12.436Z,8
2016-06-03T02:56:12.174Z,8
2016-06-03T02:57:12.191Z,8
2016-06-03T02:58:12.225Z,8
2016-06-03T02:59:12.244Z,12
2016-06-03T03:00:12.278Z,12
2016-06-03T03:01:12.312Z,12
2016-06-03T03:02:12.330Z,12
2016-06-03T03:03:12.207Z,12
2016-06-03T03:04:12.382Z,12
2016-06-03T03:05:12.401Z,12
2016-06-03T03:06:12.434Z,12
2016-06-03T03:07:12.469Z,12
2016-06-03T03:08:12.487Z,12
2016-06-03T03:09:12.520Z,12
2016-06-03T03:10:12.492Z,12
2016-06-03T03:11:12.573Z,12
2016-06-03T03:12:12.607Z,12
2016-06-03T03:13:12.626Z,8
2016-06-03T03:14:12.659Z,8
2016-06-03T03:15:12.678Z,8
2016-06-03T03:16:12.711Z,8
2016-06-03T03:17:12.730Z,8
2016-06-03T03:18:12.764Z,12
2016-06-03T03:19:12.781Z,16
2016-06-03T03:20:12.816Z,16
2016-06-03T03:21:12.833Z,16
2016-06-03T03:22:12.728Z,16
2016-06-03T03:23:12.887Z,16
2016-06-03T03:24:12.920Z,16
2016-06-03T03:25:13.002Z,24
2016-06-03T03:26:12.973Z,28
2016-06-03T03:27:12.991Z,28
2016-06-03T03:28:13.040Z,28
2016-06-03T03:29:13.043Z,24
2016-06-03T03:30:13.077Z,28
2016-06-03T03:31:13.110Z,28
2016-06-03T03:32:13.146Z,32
2016-06-03T03:33:13.163Z,32
2016-06-03T03:34:13.213Z,32
2016-06-03T03:35:13.231Z,28
2016-06-03T03:36:13.250Z,28
2016-06-03T03:37:13.267Z,28
2016-06-03T03:38:13.286Z,28
2016-06-03T03:39:13.320Z,28
2016-06-03T03:40:13.854Z,24
2016-06-03T03:41:13.373Z,24
2016-06-03T03:42:13.390Z,24
2016-06-03T03:43:13.425Z,24
2016-06-03T03:44:13.458Z,28
2016-06-03T03:45:13.493Z,36
2016-06-03T03:46:13.526Z,40
2016-06-03T03:47:13.529Z,44
2016-06-03T03:48:13.563Z,56
2016-06-03T03:49:13.722Z,60
2016-06-03T03:50:13.631Z,68
2016-06-03T03:51:13.743Z,92
2016-06-03T03:52:13.653Z,104
2016-06-03T03:53:13.686Z,112
2016-06-03T03:54:13.720Z,124
2016-06-03T03:55:13.722Z,124
2016-06-03T03:56:13.772Z,124
2016-06-03T03:57:13.899Z,104
2016-06-03T03:58:13.825Z,88
2016-06-03T03:59:13.858Z,72
2016-06-03T04:00:14.033Z,68
2016-06-03T04:01:13.911Z,68
2016-06-03T04:02:13.961Z,64
2016-06-03T04:03:13.963Z,68
2016-06-03T04:04:14.043Z,88
2016-06-03T04:05:14.015Z,88
2016-06-03T04:06:14.033Z,76
2016-06-03T04:07:14.067Z,88
2016-06-03T04:08:14.164Z,80
2016-06-03T04:09:14.120Z,72
2016-06-03T04:10:14.856Z,76
2016-06-03T04:11:14.187Z,60
2016-06-03T04:12:14.284Z,64
2016-06-03T04:13:14.240Z,64
2016-06-03T04:14:14.243Z,60
2016-06-03T04:15:14.276Z,80
2016-06-03T04:16:14.294Z,88
2016-06-03T04:17:14.328Z,116
2016-06-03T04:18:14.362Z,148
2016-06-03T04:19:14.381Z,172
2016-06-03T04:20:14.415Z,168
2016-06-03T04:21:14.495Z,160
2016-06-03T04:22:14.467Z,168
2016-06-03T04:23:14.486Z,188
2016-06-03T04:24:14.520Z,196
2016-06-03T04:25:14.491Z,192
2016-06-03T04:26:14.572Z,164
2016-06-03T04:27:14.683Z,176
2016-06-03T04:28:14.717Z,188
2016-06-03T04:29:14.658Z,196
2016-06-03T04:30:14.536Z,220
2016-06-03T04:31:14.882Z,256
2016-06-03T04:32:14.728Z,260
2016-06-03T04:33:14.763Z,244
2016-06-03T04:34:14.781Z,216
2016-06-03T04:35:14.846Z,208
2016-06-03T04:36:14.833Z,224
2016-06-03T04:37:14.866Z,248
2016-06-03T04:38:14.885Z,268
2016-06-03T04:39:14.762Z,284
2016-06-03T04:40:14.860Z,336
2016-06-03T04:41:14.971Z,356
2016-06-03T04:42:15.005Z,352
2016-06-03T04:43:15.023Z,356
2016-06-03T04:44:15.042Z,320
2016-06-03T04:45:15.060Z,288
2016-06-03T04:46:15.109Z,312
2016-06-03T04:47:15.129Z,360
2016-06-03T04:48:15.146Z,392
2016-06-03T04:49:15.180Z,416
2016-06-03T04:50:15.042Z,360
2016-06-03T04:51:15.233Z,300
2016-06-03T04:52:15.251Z,248
2016-06-03T04:53:15.284Z,208
2016-06-03T04:54:15.319Z,208
2016-06-03T04:55:15.884Z,224
2016-06-03T04:56:15.356Z,264
2016-06-03T04:57:15.389Z,300
2016-06-03T04:58:15.408Z,344
2016-06-03T04:59:15.442Z,424
2016-06-03T05:00:15.475Z,512
2016-06-03T05:01:15.493Z,536
2016-06-03T05:02:15.513Z,508
2016-06-03T05:03:15.546Z,516
2016-06-03T05:04:15.580Z,532
2016-06-03T05:05:15.598Z,696
2016-06-03T05:06:15.616Z,728
2016-06-03T05:07:15.651Z,644
2016-06-03T05:08:15.700Z,704
2016-06-03T05:09:15.702Z,812
2016-06-03T05:10:15.752Z,784
2016-06-03T05:11:15.755Z,856
2016-06-03T05:12:15.790Z,856
2016-06-03T05:13:15.823Z,844
2016-06-03T05:14:15.841Z,832
2016-06-03T05:15:15.876Z,832
2016-06-03T05:16:15.878Z,824
2016-06-03T05:17:15.911Z,800
2016-06-03T05:18:15.961Z,752
2016-06-03T05:19:15.979Z,728
2016-06-03T05:20:15.982Z,728
2016-06-03T05:21:16.125Z,740
2016-06-03T05:22:16.253Z,764
2016-06-03T05:23:16.256Z,752
2016-06-03T05:24:19.197Z,712
2016-06-03T05:25:16.339Z,692
2016-06-03T05:26:16.280Z,684
2016-06-03T05:27:16.189Z,680
2016-06-03T05:28:16.301Z,684
2016-06-03T05:29:16.350Z,696
2016-06-03T05:30:16.338Z,712
2016-06-03T05:31:16.294Z,720
2016-06-03T05:32:16.328Z,728
2016-06-03T05:33:16.345Z,732
2016-06-03T05:34:16.363Z,732
2016-06-03T05:35:16.429Z,732
2016-06-03T05:36:16.416Z,736
2016-06-03T05:37:16.449Z,736
2016-06-03T05:38:16.468Z,740
2016-06-03T05:39:16.502Z,740
2016-06-03T05:40:16.411Z,748
2016-06-03T05:41:16.554Z,748
2016-06-03T05:42:16.573Z,744
2016-06-03T05:43:16.623Z,740
2016-06-03T05:44:16.626Z,748
2016-06-03T05:45:16.659Z,752
2016-06-03T05:46:16.677Z,764
2016-06-03T05:47:16.712Z,772
2016-06-03T05:48:16.746Z,776
2016-06-03T05:49:16.639Z,780
2016-06-03T05:50:16.782Z,784
2016-06-03T05:51:16.816Z,796
2016-06-03T05:52:16.850Z,816
2016-06-03T05:53:16.867Z,840
2016-06-03T05:54:16.886Z,872
2016-06-03T05:55:17.373Z,912
2016-06-03T05:56:16.953Z,956
2016-06-03T05:57:16.972Z,996
2016-06-03T05:58:16.850Z,1028
2016-06-03T05:59:17.228Z,1056
2016-06-03T06:00:17.089Z,1084
2016-06-03T06:01:17.186Z,1096
2016-06-03T06:02:17.111Z,1132
2016-06-03T06:03:17.145Z,1156
2016-06-03T06:04:17.272Z,1160
2016-06-03T06:05:17.182Z,1168
2016-06-03T06:06:17.216Z,1164
2016-06-03T06:07:17.250Z,1156
2016-06-03T06:08:17.111Z,1152
2016-06-03T06:09:17.318Z,1156
2016-06-03T06:10:18.163Z,1168
2016-06-03T06:11:17.355Z,1192
2016-06-03T06:12:17.215Z,1220
2016-06-03T06:13:17.406Z,1256
2016-06-03T06:14:17.440Z,1300
2016-06-03T06:15:17.459Z,1332
2016-06-03T06:16:17.242Z,1352
2016-06-03T06:17:17.542Z,1360
2016-06-03T06:18:17.420Z,1364
2016-06-03T06:19:17.563Z,1364
2016-06-03T06:20:17.597Z,1368
2016-06-03T06:21:17.490Z,1376
2016-06-03T06:22:17.649Z,1380
2016-06-03T06:23:17.777Z,1376
2016-06-03T06:24:17.779Z,1396
2016-06-03T06:25:17.798Z,1448
2016-06-03T06:26:17.817Z,1488
2016-06-03T06:27:17.867Z,1524
2016-06-03T06:28:17.883Z,1560
2016-06-03T06:29:17.902Z,1592
2016-06-03T06:30:18.077Z,1596
2016-06-03T06:31:17.908Z,1576
2016-06-03T06:32:17.847Z,1544
2016-06-03T06:33:18.147Z,1488
2016-06-03T06:34:18.056Z,1420
2016-06-03T06:35:17.934Z,1356
2016-06-03T06:36:18.140Z,1300
2016-06-03T06:37:18.143Z,1244
2016-06-03T06:38:18.177Z,1196
2016-06-03T06:39:18.194Z,1176
2016-06-03T06:40:19.042Z,1164
2016-06-03T06:41:18.216Z,1156
2016-06-03T06:42:18.202Z,1164
2016-06-03T06:43:18.268Z,1164
2016-06-03T06:44:18.318Z,1184
2016-06-03T06:45:18.273Z,1180
2016-06-03T06:46:18.292Z,1200
2016-06-03T06:47:18.365Z,1220
2016-06-03T06:48:18.427Z,1352
2016-06-03T06:49:18.472Z,1268
2016-06-03T06:50:18.580Z,1196
2016-06-03T06:51:18.579Z,1240
2016-06-03T06:52:18.610Z,1268
2016-06-03T06:53:18.669Z,1288
2016-06-03T06:54:18.681Z,1300
2016-06-03T06:55:19.413Z,1316
2016-06-03T06:56:18.848Z,1420
2016-06-03T06:57:18.901Z,1396
2016-06-03T06:58:18.860Z,1352
2016-06-03T06:59:18.851Z,1356
2016-06-03T07:00:18.873Z,1564
2016-06-03T07:01:18.911Z,1540
2016-06-03T07:02:18.961Z,1520
2016-06-03T07:03:18.965Z,1528
2016-06-03T07:04:19.031Z,1612
2016-06-03T07:05:19.035Z,1712
2016-06-03T07:06:19.070Z,1716
2016-06-03T07:07:19.151Z,1680
2016-06-03T07:08:19.171Z,1672
2016-06-03T07:09:19.159Z,1904
2016-06-03T07:10:19.334Z,2100
2016-06-03T07:11:19.338Z,2112
2016-06-03T07:12:19.215Z,1680
2016-06-03T07:13:19.265Z,1608
2016-06-03T07:14:19.284Z,1776
2016-06-03T07:15:19.317Z,1644
2016-06-03T07:16:19.336Z,1704
2016-06-03T07:17:19.369Z,1784
2016-06-03T07:18:19.387Z,1760
2016-06-03T07:19:19.422Z,2148
2016-06-03T07:20:19.439Z,1960
2016-06-03T07:21:19.474Z,2088
2016-06-03T07:22:19.492Z,1992
2016-06-03T07:23:19.542Z,1840
2016-06-03T07:24:19.560Z,1632
2016-06-03T07:25:20.267Z,1336
2016-06-03T07:26:19.613Z,2152
2016-06-03T07:27:19.491Z,2076
2016-06-03T07:28:19.680Z,1464
2016-06-03T07:29:19.699Z,1172
2016-06-03T07:30:19.733Z,1264
2016-06-03T07:31:19.752Z,1900
2016-06-03T07:32:19.800Z,1824
2016-06-03T07:33:19.866Z,1948
2016-06-03T07:34:19.837Z,1920
2016-06-03T07:35:19.871Z,1916
2016-06-03T07:36:19.890Z,2004
2016-06-03T07:37:19.924Z,2088
2016-06-03T07:38:19.957Z,2076
2016-06-03T07:39:19.976Z,2008
2016-06-03T07:40:20.197Z,1768
2016-06-03T07:41:20.044Z,1464
2016-06-03T07:42:20.124Z,1756
2016-06-03T07:43:20.126Z,2408
2016-06-03T07:44:20.129Z,2364
2016-06-03T07:45:20.273Z,2184
2016-06-03T07:46:20.276Z,2428
2016-06-03T07:47:20.309Z,2504
2016-06-03T07:48:20.328Z,2408
2016-06-03T07:49:20.175Z,2312
2016-06-03T07:50:20.333Z,2580
2016-06-03T07:51:20.336Z,2640
2016-06-03T07:52:20.370Z,2544
2016-06-03T07:53:20.466Z,2636
2016-06-03T07:54:20.359Z,2496
2016-06-03T07:55:21.706Z,2620
2016-06-03T07:56:20.162Z,2388
2016-06-03T07:57:20.492Z,2148
2016-06-03T07:58:20.542Z,2004
2016-06-03T07:59:20.560Z,1904
2016-06-03T08:00:20.579Z,1940
2016-06-03T08:01:20.613Z,1984
2016-06-03T08:02:20.646Z,1988
2016-06-03T08:03:20.681Z,2012
2016-06-03T08:04:20.715Z,2072
2016-06-03T08:05:20.827Z,1964
2016-06-03T08:06:20.829Z,2016
2016-06-03T08:07:20.160Z,2080
2016-06-03T08:08:20.976Z,2112
2016-06-03T08:09:20.978Z,2264
2016-06-03T08:10:21.871Z,2272
2016-06-03T08:11:20.999Z,2396
2016-06-03T08:12:21.002Z,2028
2016-06-03T08:13:21.176Z,1680
2016-06-03T08:14:21.179Z,1960
2016-06-03T08:15:21.166Z,2008
2016-06-03T08:16:21.168Z,2088
2016-06-03T08:17:21.187Z,2140
2016-06-03T08:18:21.190Z,2136
2016-06-03T08:19:21.192Z,2196
2016-06-03T08:20:21.258Z,2192
2016-06-03T08:21:21.198Z,2164
2016-06-03T08:22:21.231Z,2148
2016-06-03T08:23:21.250Z,2124
2016-06-03T08:24:21.300Z,2176
2016-06-03T08:25:21.881Z,2280
2016-06-03T08:26:21.352Z,2436
2016-06-03T08:27:21.386Z,2572
2016-06-03T08:28:21.436Z,2752
2016-06-03T08:29:21.438Z,2948
2016-06-03T08:30:21.456Z,3024
2016-06-03T08:31:21.491Z,3048
2016-06-03T08:32:21.524Z,2992
2016-06-03T08:33:21.543Z,2956
2016-06-03T08:34:21.591Z,2928
2016-06-03T08:35:21.455Z,2952
2016-06-03T08:36:21.644Z,2948
2016-06-03T08:37:21.679Z,2956
2016-06-03T08:38:21.697Z,2904
2016-06-03T08:39:21.746Z,2792
2016-06-03T08:40:21.640Z,2868
2016-06-03T08:41:21.782Z,2896
2016-06-03T08:42:21.832Z,2864
2016-06-03T08:43:21.851Z,2848
2016-06-03T08:44:21.884Z,2892
2016-06-03T08:45:21.919Z,2844
2016-06-03T08:46:21.953Z,2772
2016-06-03T08:47:21.986Z,2676
2016-06-03T08:48:22.084Z,2376
2016-06-03T08:49:22.132Z,2432
2016-06-03T08:50:22.073Z,2464
2016-06-03T08:51:21.982Z,2468
2016-06-03T08:52:22.156Z,2468
2016-06-03T08:53:22.221Z,2596
2016-06-03T08:54:22.068Z,2532
2016-06-03T08:55:22.070Z,1908
2016-06-03T08:56:22.339Z,1604
2016-06-03T08:57:22.358Z,2492
2016-06-03T08:58:22.391Z,2692
2016-06-03T08:59:22.113Z,2344
2016-06-03T09:00:22.412Z,2252
2016-06-03T09:01:22.430Z,2716
2016-06-03T09:02:22.449Z,2872
2016-06-03T09:03:22.467Z,2892
2016-06-03T09:04:22.502Z,2904
2016-06-03T09:05:22.536Z,2924
2016-06-03T09:06:22.553Z,2904
2016-06-03T09:07:22.602Z,2864
2016-06-03T09:08:22.652Z,2836
2016-06-03T09:09:22.640Z,2752
2016-06-03T09:10:23.939Z,2780
2016-06-03T09:11:22.770Z,2832
2016-06-03T09:12:22.804Z,2868
2016-06-03T09:13:22.963Z,2892
2016-06-03T09:14:22.982Z,2904
2016-06-03T09:15:23.015Z,2916
2016-06-03T09:16:23.002Z,2904
2016-06-03T09:17:23.037Z,2888
2016-06-03T09:18:23.008Z,2796
2016-06-03T09:19:23.057Z,2824
2016-06-03T09:20:23.076Z,2876
2016-06-03T09:21:23.078Z,2784
2016-06-03T09:22:23.159Z,2540
2016-06-03T09:23:23.146Z,2216
2016-06-03T09:24:23.196Z,2012
2016-06-03T09:25:24.886Z,2296
2016-06-03T09:26:23.200Z,2556
2016-06-03T09:27:23.204Z,2784
2016-06-03T09:28:23.237Z,2728
2016-06-03T09:29:23.271Z,2676
2016-06-03T09:30:23.306Z,2680
2016-06-03T09:31:23.339Z,2676
2016-06-03T09:32:23.357Z,2676
2016-06-03T09:33:23.422Z,2664
2016-06-03T09:34:23.426Z,2652
2016-06-03T09:35:23.444Z,2640
2016-06-03T09:36:23.478Z,2652
2016-06-03T09:37:23.511Z,2736
2016-06-03T09:38:23.546Z,2884
2016-06-03T09:39:23.564Z,3032
2016-06-03T09:40:24.348Z,3152
2016-06-03T09:41:23.647Z,3216
2016-06-03T09:42:23.525Z,3208
2016-06-03T09:43:23.700Z,3184
2016-06-03T09:44:23.735Z,3164
2016-06-03T09:45:23.596Z,3144
2016-06-03T09:46:23.801Z,3124
2016-06-03T09:47:23.836Z,3124
2016-06-03T09:48:23.853Z,3136
2016-06-03T09:49:23.888Z,3132
2016-06-03T09:50:23.921Z,3120
2016-06-03T09:51:23.987Z,3148
2016-06-03T09:52:24.052Z,3212
2016-06-03T09:53:24.070Z,3292
2016-06-03T09:54:24.089Z,3260
2016-06-03T09:55:24.514Z,3252
2016-06-03T09:56:24.219Z,3228
2016-06-03T09:57:24.237Z,3376
2016-06-03T09:58:24.271Z,3516
2016-06-03T09:59:24.274Z,3656
2016-06-03T10:00:24.293Z,3684
2016-06-03T10:01:24.295Z,3800
2016-06-03T10:02:24.298Z,3996
2016-06-03T10:03:24.410Z,3804
2016-06-03T10:04:24.428Z,3664
2016-06-03T10:05:24.461Z,4072
2016-06-03T10:06:24.434Z,4220
2016-06-03T10:07:24.452Z,3740
2016-06-03T10:08:24.501Z,3544
2016-06-03T10:09:24.520Z,3528
2016-06-03T10:10:25.272Z,3276
2016-06-03T10:11:24.572Z,3036
2016-06-03T10:12:24.622Z,2996
2016-06-03T10:13:24.640Z,2988
2016-06-03T10:14:24.674Z,3376
2016-06-03T10:15:24.551Z,3736
2016-06-03T10:16:24.741Z,3592
2016-06-03T10:17:24.776Z,3580
2016-06-03T10:18:24.654Z,3568
2016-06-03T10:19:24.828Z,3404
2016-06-03T10:20:24.877Z,3376
2016-06-03T10:21:24.896Z,3280
2016-06-03T10:22:24.929Z,2572
2016-06-03T10:23:24.964Z,3564
2016-06-03T10:24:24.841Z,3268
2016-06-03T10:25:25.062Z,2820
2016-06-03T10:26:25.082Z,2740
2016-06-03T10:27:25.084Z,3228
2016-06-03T10:28:25.118Z,2312
2016-06-03T10:29:25.167Z,1940
2016-06-03T10:30:25.186Z,1464
2016-06-03T10:31:25.220Z,2136
2016-06-03T10:32:25.253Z,2956
2016-06-03T10:33:25.287Z,3128
2016-06-03T10:34:25.352Z,3384
2016-06-03T10:35:25.214Z,3396
2016-06-03T10:36:25.374Z,3160
2016-06-03T10:37:25.422Z,2796
2016-06-03T10:38:25.458Z,2740
2016-06-03T10:39:25.475Z,2844
2016-06-03T10:40:26.697Z,3108
2016-06-03T10:41:25.558Z,3972
2016-06-03T10:42:25.577Z,3620
2016-06-03T10:43:25.611Z,2540
2016-06-03T10:44:25.645Z,4004
2016-06-03T10:45:25.679Z,3840
2016-06-03T10:46:25.729Z,3184
2016-06-03T10:47:25.747Z,3796
2016-06-03T10:48:25.624Z,4168
2016-06-03T10:49:25.799Z,3364
2016-06-03T10:50:25.833Z,2668
2016-06-03T10:51:25.868Z,3348
2016-06-03T10:52:25.745Z,3956
2016-06-03T10:53:25.934Z,3864
2016-06-03T10:54:25.954Z,3440
2016-06-03T10:55:26.534Z,2548
2016-06-03T10:56:26.365Z,3256
2016-06-03T10:57:26.118Z,2532
2016-06-03T10:58:26.120Z,2884
2016-06-03T10:59:26.092Z,2688
2016-06-03T11:00:26.266Z,2792
2016-06-03T11:01:26.300Z,2488
2016-06-03T11:02:26.303Z,3004
2016-06-03T11:03:26.322Z,4452
2016-06-03T11:04:26.324Z,4524
2016-06-03T11:05:26.327Z,4456
2016-06-03T11:06:26.438Z,3412
2016-06-03T11:07:26.472Z,2788
2016-06-03T11:08:26.491Z,1756
2016-06-03T11:09:26.494Z,1520
2016-06-03T11:10:27.105Z,1600
2016-06-03T11:11:26.514Z,1632
2016-06-03T11:12:26.564Z,2692
2016-06-03T11:13:26.598Z,3864
2016-06-03T11:14:26.476Z,3320
2016-06-03T11:15:26.665Z,3172
2016-06-03T11:16:26.699Z,2868
2016-06-03T11:17:26.812Z,3548
2016-06-03T11:18:26.830Z,3104
2016-06-03T11:19:26.865Z,2528
2016-06-03T11:20:26.898Z,2764
2016-06-03T11:21:27.057Z,3276
2016-06-03T11:22:27.060Z,3308
2016-06-03T11:23:27.093Z,3460
2016-06-03T11:24:26.971Z,4364
2016-06-03T11:25:27.239Z,3680
2016-06-03T11:26:27.134Z,4292
2016-06-03T11:27:27.137Z,3856
2016-06-03T11:28:27.139Z,3680
2016-06-03T11:29:27.220Z,5340
2016-06-03T11:30:27.222Z,5900
2016-06-03T11:31:27.303Z,6052
2016-06-03T11:32:27.258Z,6148
2016-06-03T11:33:27.277Z,5520
2016-06-03T11:34:27.295Z,5512
2016-06-03T11:35:27.173Z,5464
2016-06-03T11:36:27.348Z,4692
2016-06-03T11:37:27.413Z,4376
2016-06-03T11:38:27.275Z,4112
2016-06-03T11:39:27.465Z,4464
2016-06-03T11:40:27.186Z,4812
2016-06-03T11:41:27.533Z,4952
2016-06-03T11:42:27.411Z,5252
2016-06-03T11:43:27.585Z,4432
2016-06-03T11:44:27.635Z,4044
2016-06-03T11:45:27.652Z,3460
2016-06-03T11:46:27.702Z,3084
2016-06-03T11:47:27.736Z,3076
2016-06-03T11:48:27.755Z,3432
2016-06-03T11:49:27.789Z,3888
2016-06-03T11:50:27.823Z,3992
2016-06-03T11:51:27.857Z,3116
2016-06-03T11:52:27.890Z,2332
2016-06-03T11:53:27.924Z,2312
2016-06-03T11:54:27.958Z,2684
2016-06-03T11:55:28.023Z,3308
2016-06-03T11:56:28.026Z,3952
2016-06-03T11:57:28.060Z,4620
2016-06-03T11:58:28.110Z,6708
2016-06-03T11:59:28.143Z,6404
2016-06-03T12:00:28.162Z,6552
2016-06-03T12:01:28.212Z,7008
2016-06-03T12:02:28.245Z,7028
2016-06-03T12:03:28.264Z,7168
2016-06-03T12:04:28.313Z,5708
2016-06-03T12:05:28.348Z,5468
2016-06-03T12:06:28.381Z,4908
2016-06-03T12:07:28.399Z,5420
2016-06-03T12:08:28.449Z,4672
2016-06-03T12:09:28.483Z,4016
2016-06-03T12:10:29.751Z,4232
2016-06-03T12:11:30.145Z,6032
2016-06-03T12:12:28.585Z,5140
2016-06-03T12:13:28.619Z,4792
2016-06-03T12:14:28.653Z,4240
2016-06-03T12:15:28.530Z,4408
2016-06-03T12:16:28.721Z,3532
2016-06-03T12:17:28.770Z,3172
2016-06-03T12:18:28.789Z,2820
2016-06-03T12:19:28.822Z,2432
2016-06-03T12:20:28.966Z,2864
2016-06-03T12:21:28.999Z,3160
2016-06-03T12:22:29.002Z,3140
2016-06-03T12:23:29.021Z,3148
2016-06-03T12:24:29.024Z,2824
2016-06-03T12:25:29.167Z,4092
2016-06-03T12:26:29.185Z,4788
2016-06-03T12:27:28.953Z,4876
2016-06-03T12:28:29.221Z,4924
2016-06-03T12:29:29.256Z,4616
2016-06-03T12:30:29.259Z,4548
2016-06-03T12:31:29.261Z,4064
2016-06-03T12:32:29.279Z,4000
2016-06-03T12:33:29.314Z,4428
2016-06-03T12:34:29.270Z,4900
2016-06-03T12:35:29.381Z,5332
2016-06-03T12:36:29.415Z,5276
2016-06-03T12:37:29.449Z,4760
2016-06-03T12:38:29.483Z,4312
2016-06-03T12:39:29.517Z,3992
2016-06-03T12:40:30.378Z,3732
2016-06-03T12:41:29.803Z,3736
2016-06-03T12:42:29.853Z,3508
2016-06-03T12:43:29.731Z,2732
2016-06-03T12:44:29.827Z,2268
2016-06-03T12:45:29.846Z,2156
2016-06-03T12:46:29.864Z,1700
2016-06-03T12:47:29.851Z,1200
2016-06-03T12:48:30.010Z,1072
2016-06-03T12:49:30.013Z,1004
2016-06-03T12:50:30.015Z,952
2016-06-03T12:51:30.033Z,896
2016-06-03T12:52:30.036Z,892
2016-06-03T12:53:30.038Z,872
2016-06-03T12:54:29.885Z,928
2016-06-03T12:55:30.090Z,980
2016-06-03T12:56:30.109Z,1048
2016-06-03T12:57:30.159Z,1044
2016-06-03T12:58:30.193Z,1084
2016-06-03T12:59:30.071Z,1212
2016-06-03T13:00:30.262Z,1308
2016-06-03T13:01:30.514Z,1296
2016-06-03T13:02:30.344Z,1236
2016-06-03T13:03:30.237Z,1100
2016-06-03T13:04:30.428Z,980
2016-06-03T13:05:30.431Z,928
2016-06-03T13:06:30.481Z,888
2016-06-03T13:07:30.531Z,888
2016-06-03T13:08:30.548Z,932
2016-06-03T13:09:30.581Z,1096
2016-06-03T13:10:30.695Z,1388
2016-06-03T13:11:31.994Z,1864
2016-06-03T13:12:30.699Z,2192
2016-06-03T13:13:30.717Z,2604
2016-06-03T13:14:30.767Z,3448
2016-06-03T13:15:30.817Z,4096
2016-06-03T13:16:30.835Z,5084
2016-06-03T13:17:30.853Z,3240
2016-06-03T13:18:30.903Z,2816
2016-06-03T13:19:30.937Z,2376
2016-06-03T13:20:30.955Z,2148
2016-06-03T13:21:31.021Z,2292
2016-06-03T13:22:31.055Z,2260
2016-06-03T13:23:31.088Z,2472
2016-06-03T13:24:31.107Z,4444
2016-06-03T13:25:31.265Z,4940
2016-06-03T13:26:32.002Z,7224
2016-06-03T13:27:31.209Z,5676
2016-06-03T13:28:31.243Z,5520
2016-06-03T13:29:31.277Z,4804
2016-06-03T13:30:31.310Z,4656
2016-06-03T13:31:31.360Z,4864
2016-06-03T13:32:31.378Z,5812
2016-06-03T13:33:31.412Z,5760
2016-06-03T13:34:31.446Z,7172
2016-06-03T13:35:31.480Z,8348
2016-06-03T13:36:31.530Z,8852
2016-06-03T13:37:31.548Z,8888
2016-06-03T13:38:31.629Z,8356
2016-06-03T13:39:31.647Z,8308
2016-06-03T13:40:32.603Z,8800
2016-06-03T13:41:31.683Z,9580
2016-06-03T13:42:31.733Z,7168
2016-06-03T13:43:31.736Z,9448
2016-06-03T13:44:31.910Z,5372
2016-06-03T13:45:31.820Z,7864